sensor_id;sensor_type;location;lat;lon;timestamp;pressure;altitude;pressure_sealevel;temperature;humidity
62458;BME280;48509;52.122;5.250;2023-06-22T00:00:03;101938.0;;;18.52;100.0
62458;BME280;48509;52.122;5.250;2023-06-22T00:04:51;101933.0;;;18.59;100.0
62458;BME280;48509;52.122;5.250;2023-06-22T00:06:27;101938.0;;;18.56;100.0
62458;BME280;48509;52.122;5.250;2023-06-22T00:08:04;101943.0;;;18.5;100.0
62458;BME280;48509;52.122;5.250;2023-06-22T00:11:16;101946.0;;;18.45;100.0
62458;BME280;48509;52.122;5.250;2023-06-22T00:12:52;101945.0;;;18.45;100.0
62458;BME280;48509;52.122;5.250;2023-06-22T00:14:29;101939.0;;;18.37;100.0
62458;BME280;48509;52.122;5.250;2023-06-22T00:17:41;101945.0;;;18.38;100.0
62458;BME280;48509;52.122;5.250;2023-06-22T00:19:17;101943.0;;;18.43;100.0
62458;BME280;48509;52.122;5.250;2023-06-22T00:20:54;101945.0;;;18.53;100.0
62458;BME280;48509;52.122;5.250;2023-06-22T00:24:07;101940.0;;;18.43;100.0
62458;BME280;48509;52.122;5.250;2023-06-22T00:25:43;101939.0;;;18.45;100.0
62458;BME280;48509;52.122;5.250;2023-06-22T00:27:19;101937.0;;;18.43;100.0
62458;BME280;48509;52.122;5.250;2023-06-22T00:28:55;101930.0;;;18.41;100.0
62458;BME280;48509;52.122;5.250;2023-06-22T00:32:08;101927.0;;;18.38;100.0
62458;BME280;48509;52.122;5.250;2023-06-22T00:33:45;101931.0;;;18.45;100.0
62458;BME280;48509;52.122;5.250;2023-06-22T00:35:21;101930.0;;;18.41;100.0
62458;BME280;48509;52.122;5.250;2023-06-22T00:38:33;101924.0;;;18.3;100.0
62458;BME280;48509;52.122;5.250;2023-06-22T00:40:10;101919.0;;;18.31;100.0
62458;BME280;48509;52.122;5.250;2023-06-22T00:41:46;101918.0;;;18.3;100.0
62458;BME280;48509;52.122;5.250;2023-06-22T00:44:59;101922.0;;;18.3;100.0
62458;BME280;48509;52.122;5.250;2023-06-22T00:46:35;101922.0;;;18.22;100.0
62458;BME280;48509;52.122;5.250;2023-06-22T00:48:12;101920.0;;;18.18;100.0
62458;BME280;48509;52.122;5.250;2023-06-22T00:49:50;101922.0;;;18.2;100.0
62458;BME280;48509;52.122;5.250;2023-06-22T00:53:05;101917.0;;;18.11;100.0
62458;BME280;48509;52.122;5.250;2023-06-22T00:54:43;101915.0;;;18.18;100.0
62458;BME280;48509;52.122;5.250;2023-06-22T00:56:20;101914.0;;;18.16;100.0
62458;BME280;48509;52.122;5.250;2023-06-22T00:59:32;101915.0;;;18.06;100.0
62458;BME280;48509;52.122;5.250;2023-06-22T01:01:09;101907.0;;;18.03;100.0
62458;BME280;48509;52.122;5.250;2023-06-22T01:02:45;101909.0;;;18.02;100.0
62458;BME280;48509;52.122;5.250;2023-06-22T01:06:15;101917.0;;;17.96;100.0
62458;BME280;48509;52.122;5.250;2023-06-22T01:08:02;101919.0;;;17.98;100.0
62458;BME280;48509;52.122;5.250;2023-06-22T01:09:46;101912.0;;;17.95;100.0
62458;BME280;48509;52.122;5.250;2023-06-22T01:11:31;101910.0;;;17.97;100.0
62458;BME280;48509;52.122;5.250;2023-06-22T01:13:18;101905.0;;;18.02;100.0
62458;BME280;48509;52.122;5.250;2023-06-22T01:15:04;101905.0;;;17.95;100.0
62458;BME280;48509;52.122;5.250;2023-06-22T01:18:25;101903.0;;;17.84;100.0
62458;BME280;48509;52.122;5.250;2023-06-22T01:20:07;101906.0;;;17.95;100.0
62458;BME280;48509;52.122;5.250;2023-06-22T01:21:45;101912.0;;;17.95;100.0
62458;BME280;48509;52.122;5.250;2023-06-22T01:23:27;101912.0;;;18.18;100.0
62458;BME280;48509;52.122;5.250;2023-06-22T01:26:56;101916.0;;;17.97;100.0
62458;BME280;48509;52.122;5.250;2023-06-22T01:28:45;101916.0;;;17.82;100.0
62458;BME280;48509;52.122;5.250;2023-06-22T01:30:23;101914.0;;;17.81;100.0
62458;BME280;48509;52.122;5.250;2023-06-22T01:32:02;101909.0;;;17.84;100.0
62458;BME280;48509;52.122;5.250;2023-06-22T01:35:20;101907.0;;;17.84;100.0
62458;BME280;48509;52.122;5.250;2023-06-22T01:36:58;101907.0;;;17.77;100.0
62458;BME280;48509;52.122;5.250;2023-06-22T01:38:37;101902.0;;;17.72;100.0
62458;BME280;48509;52.122;5.250;2023-06-22T01:40:14;101905.0;;;17.79;100.0
62458;BME280;48509;52.122;5.250;2023-06-22T01:43:30;101906.0;;;17.78;100.0
62458;BME280;48509;52.122;5.250;2023-06-22T01:45:07;101903.0;;;17.71;100.0
62458;BME280;48509;52.122;5.250;2023-06-22T01:46:43;101905.0;;;17.68;100.0
62458;BME280;48509;52.122;5.250;2023-06-22T01:49:58;101907.0;;;17.57;100.0
62458;BME280;48509;52.122;5.250;2023-06-22T01:51:34;101905.0;;;17.55;100.0
62458;BME280;48509;52.122;5.250;2023-06-22T01:53:10;101900.0;;;17.52;100.0
62458;BME280;48509;52.122;5.250;2023-06-22T01:54:47;101905.0;;;17.47;100.0
62458;BME280;48509;52.122;5.250;2023-06-22T01:58:02;101906.0;;;17.48;100.0
62458;BME280;48509;52.122;5.250;2023-06-22T01:59:45;101900.0;;;17.5;100.0
62458;BME280;48509;52.122;5.250;2023-06-22T02:01:28;101899.0;;;17.48;100.0
62458;BME280;48509;52.122;5.250;2023-06-22T02:03:10;101900.0;;;17.46;100.0
62458;BME280;48509;52.122;5.250;2023-06-22T02:06:37;101898.0;;;17.45;100.0
62458;BME280;48509;52.122;5.250;2023-06-22T02:08:18;101898.0;;;17.46;100.0
62458;BME280;48509;52.122;5.250;2023-06-22T02:09:57;101902.0;;;17.39;100.0
62458;BME280;48509;52.122;5.250;2023-06-22T02:11:36;101896.0;;;17.53;100.0
62458;BME280;48509;52.122;5.250;2023-06-22T02:14:51;101897.0;;;17.38;100.0
62458;BME280;48509;52.122;5.250;2023-06-22T02:16:31;101893.0;;;17.34;100.0
62458;BME280;48509;52.122;5.250;2023-06-22T02:18:08;101890.0;;;17.39;100.0
62458;BME280;48509;52.122;5.250;2023-06-22T02:21:21;101891.0;;;17.34;100.0
62458;BME280;48509;52.122;5.250;2023-06-22T02:22:57;101890.0;;;17.3;100.0
62458;BME280;48509;52.122;5.250;2023-06-22T02:24:33;101885.0;;;17.27;100.0
62458;BME280;48509;52.122;5.250;2023-06-22T02:26:10;101886.0;;;17.23;100.0
62458;BME280;48509;52.122;5.250;2023-06-22T02:29:22;101888.0;;;17.27;100.0
62458;BME280;48509;52.122;5.250;2023-06-22T02:30:58;101888.0;;;17.29;100.0
62458;BME280;48509;52.122;5.250;2023-06-22T02:32:34;101885.0;;;17.22;100.0
62458;BME280;48509;52.122;5.250;2023-06-22T02:35:47;101890.0;;;17.25;100.0
62458;BME280;48509;52.122;5.250;2023-06-22T02:37:24;101887.0;;;17.12;100.0
62458;BME280;48509;52.122;5.250;2023-06-22T02:39:00;101884.0;;;17.16;100.0
62458;BME280;48509;52.122;5.250;2023-06-22T02:42:12;101883.0;;;17.18;100.0
62458;BME280;48509;52.122;5.250;2023-06-22T02:43:48;101885.0;;;17.13;100.0
62458;BME280;48509;52.122;5.250;2023-06-22T02:45:25;101888.0;;;17.09;100.0
62458;BME280;48509;52.122;5.250;2023-06-22T02:47:01;101880.0;;;17.07;100.0
62458;BME280;48509;52.122;5.250;2023-06-22T02:50:15;101882.0;;;17.04;100.0
62458;BME280;48509;52.122;5.250;2023-06-22T02:51:51;101883.0;;;17.09;100.0
62458;BME280;48509;52.122;5.250;2023-06-22T02:53:28;101883.0;;;17.06;100.0
62458;BME280;48509;52.122;5.250;2023-06-22T02:56:42;101884.0;;;17.09;100.0
62458;BME280;48509;52.122;5.250;2023-06-22T02:58:18;101885.0;;;17.09;100.0
62458;BME280;48509;52.122;5.250;2023-06-22T02:59:54;101886.0;;;17.05;100.0
62458;BME280;48509;52.122;5.250;2023-06-22T03:03:07;101880.0;;;17.07;100.0
62458;BME280;48509;52.122;5.250;2023-06-22T03:04:44;101881.0;;;17.06;100.0
62458;BME280;48509;52.122;5.250;2023-06-22T03:06:20;101877.0;;;17.03;100.0
62458;BME280;48509;52.122;5.250;2023-06-22T03:07:56;101880.0;;;17.02;100.0
62458;BME280;48509;52.122;5.250;2023-06-22T03:11:08;101880.0;;;17.0;100.0
62458;BME280;48509;52.122;5.250;2023-06-22T03:12:45;101881.0;;;16.97;100.0
62458;BME280;48509;52.122;5.250;2023-06-22T03:14:23;101880.0;;;17.0;100.0
62458;BME280;48509;52.122;5.250;2023-06-22T03:17:36;101883.0;;;17.04;100.0
62458;BME280;48509;52.122;5.250;2023-06-22T03:19:13;101881.0;;;17.03;100.0
62458;BME280;48509;52.122;5.250;2023-06-22T03:20:49;101878.0;;;16.95;100.0
62458;BME280;48509;52.122;5.250;2023-06-22T03:24:01;101881.0;;;16.98;100.0
62458;BME280;48509;52.122;5.250;2023-06-22T03:25:37;101880.0;;;16.96;100.0
62458;BME280;48509;52.122;5.250;2023-06-22T03:27:13;101878.0;;;16.86;100.0
62458;BME280;48509;52.122;5.250;2023-06-22T03:28:49;101877.0;;;17.0;100.0
62458;BME280;48509;52.122;5.250;2023-06-22T03:32:02;101861.0;;;16.98;100.0
62458;BME280;48509;52.122;5.250;2023-06-22T03:33:38;101870.0;;;17.18;100.0
62458;BME280;48509;52.122;5.250;2023-06-22T03:35:14;101869.0;;;17.18;100.0
62458;BME280;48509;52.122;5.250;2023-06-22T03:38:27;101862.0;;;17.02;100.0
62458;BME280;48509;52.122;5.250;2023-06-22T03:40:03;101862.0;;;17.03;100.0
62458;BME280;48509;52.122;5.250;2023-06-22T03:41:40;101863.0;;;17.07;100.0
62458;BME280;48509;52.122;5.250;2023-06-22T03:44:52;101864.0;;;17.04;100.0
62458;BME280;48509;52.122;5.250;2023-06-22T03:46:28;101866.0;;;17.05;100.0
62458;BME280;48509;52.122;5.250;2023-06-22T03:48:05;101863.0;;;17.02;100.0
62458;BME280;48509;52.122;5.250;2023-06-22T03:51:17;101863.0;;;16.96;100.0
62458;BME280;48509;52.122;5.250;2023-06-22T03:52:53;101862.0;;;16.98;100.0
62458;BME280;48509;52.122;5.250;2023-06-22T03:54:29;101861.0;;;16.96;100.0
62458;BME280;48509;52.122;5.250;2023-06-22T03:56:07;101858.0;;;16.93;100.0
62458;BME280;48509;52.122;5.250;2023-06-22T03:59:19;101858.0;;;17.0;100.0
62458;BME280;48509;52.122;5.250;2023-06-22T04:00:55;101857.0;;;17.06;100.0
62458;BME280;48509;52.122;5.250;2023-06-22T04:02:31;101858.0;;;17.11;100.0
62458;BME280;48509;52.122;5.250;2023-06-22T04:07:20;101851.0;;;17.09;100.0
62458;BME280;48509;52.122;5.250;2023-06-22T04:08:57;101853.0;;;17.02;100.0
62458;BME280;48509;52.122;5.250;2023-06-22T04:12:09;101848.0;;;16.98;100.0
62458;BME280;48509;52.122;5.250;2023-06-22T04:13:45;101848.0;;;16.93;100.0
62458;BME280;48509;52.122;5.250;2023-06-22T04:15:21;101855.0;;;16.93;100.0
62458;BME280;48509;52.122;5.250;2023-06-22T04:16:57;101849.0;;;16.95;100.0
62458;BME280;48509;52.122;5.250;2023-06-22T04:20:10;101843.0;;;17.03;100.0
62458;BME280;48509;52.122;5.250;2023-06-22T04:21:46;101843.0;;;17.04;100.0
62458;BME280;48509;52.122;5.250;2023-06-22T04:23:22;101844.0;;;17.09;100.0
62458;BME280;48509;52.122;5.250;2023-06-22T04:26:35;101838.0;;;17.13;100.0
62458;BME280;48509;52.122;5.250;2023-06-22T04:28:11;101836.0;;;17.11;100.0
62458;BME280;48509;52.122;5.250;2023-06-22T04:29:47;101840.0;;;17.16;100.0
62458;BME280;48509;52.122;5.250;2023-06-22T04:32:59;101843.0;;;17.3;100.0
62458;BME280;48509;52.122;5.250;2023-06-22T04:34:35;101837.0;;;17.31;100.0
62458;BME280;48509;52.122;5.250;2023-06-22T04:36:11;101836.0;;;17.3;100.0
62458;BME280;48509;52.122;5.250;2023-06-22T04:39:24;101837.0;;;17.32;100.0
62458;BME280;48509;52.122;5.250;2023-06-22T04:41:00;101840.0;;;17.31;100.0
62458;BME280;48509;52.122;5.250;2023-06-22T04:42:38;101840.0;;;17.37;100.0
62458;BME280;48509;52.122;5.250;2023-06-22T04:44:15;101847.0;;;17.41;100.0
62458;BME280;48509;52.122;5.250;2023-06-22T04:47:30;101851.0;;;17.47;100.0
62458;BME280;48509;52.122;5.250;2023-06-22T04:49:06;101845.0;;;17.47;100.0
62458;BME280;48509;52.122;5.250;2023-06-22T04:50:43;101846.0;;;17.57;100.0
62458;BME280;48509;52.122;5.250;2023-06-22T04:53:55;101843.0;;;17.59;100.0
62458;BME280;48509;52.122;5.250;2023-06-22T04:55:32;101842.0;;;17.63;100.0
62458;BME280;48509;52.122;5.250;2023-06-22T04:57:08;101843.0;;;17.68;100.0
62458;BME280;48509;52.122;5.250;2023-06-22T04:58:44;101846.0;;;17.73;100.0
62458;BME280;48509;52.122;5.250;2023-06-22T05:01:57;101851.0;;;17.84;100.0
62458;BME280;48509;52.122;5.250;2023-06-22T05:03:34;101855.0;;;17.87;100.0
62458;BME280;48509;52.122;5.250;2023-06-22T05:05:10;101856.0;;;18.02;100.0
62458;BME280;48509;52.122;5.250;2023-06-22T05:08:23;101848.0;;;18.14;100.0
62458;BME280;48509;52.122;5.250;2023-06-22T05:09:59;101850.0;;;18.16;100.0
62458;BME280;48509;52.122;5.250;2023-06-22T05:11:35;101846.0;;;18.25;100.0
62458;BME280;48509;52.122;5.250;2023-06-22T05:14:48;101840.0;;;18.23;100.0
62458;BME280;48509;52.122;5.250;2023-06-22T05:16:24;101841.0;;;18.28;100.0
62458;BME280;48509;52.122;5.250;2023-06-22T05:18:00;101843.0;;;18.36;100.0
62458;BME280;48509;52.122;5.250;2023-06-22T05:21:12;101844.0;;;18.45;100.0
62458;BME280;48509;52.122;5.250;2023-06-22T05:22:48;101842.0;;;18.43;100.0
62458;BME280;48509;52.122;5.250;2023-06-22T05:24:25;101844.0;;;18.41;100.0
62458;BME280;48509;52.122;5.250;2023-06-22T05:26:01;101849.0;;;18.41;100.0
62458;BME280;48509;52.122;5.250;2023-06-22T05:29:13;101849.0;;;18.52;100.0
62458;BME280;48509;52.122;5.250;2023-06-22T05:30:49;101850.0;;;18.66;100.0
62458;BME280;48509;52.122;5.250;2023-06-22T05:32:25;101853.0;;;18.82;100.0
62458;BME280;48509;52.122;5.250;2023-06-22T05:35:38;101853.0;;;18.96;100.0
62458;BME280;48509;52.122;5.250;2023-06-22T05:37:14;101851.0;;;19.03;100.0
62458;BME280;48509;52.122;5.250;2023-06-22T05:38:50;101849.0;;;19.05;100.0
62458;BME280;48509;52.122;5.250;2023-06-22T05:42:04;101858.0;;;19.22;100.0
62458;BME280;48509;52.122;5.250;2023-06-22T05:43:40;101857.0;;;19.23;100.0
62458;BME280;48509;52.122;5.250;2023-06-22T05:45:17;101856.0;;;19.41;100.0
62458;BME280;48509;52.122;5.250;2023-06-22T05:46:53;101858.0;;;19.32;100.0
62458;BME280;48509;52.122;5.250;2023-06-22T05:50:07;101860.0;;;19.36;100.0
62458;BME280;48509;52.122;5.250;2023-06-22T05:51:44;101864.0;;;19.47;100.0
62458;BME280;48509;52.122;5.250;2023-06-22T05:53:20;101862.0;;;19.5;100.0
62458;BME280;48509;52.122;5.250;2023-06-22T05:56:32;101865.0;;;19.68;100.0
62458;BME280;48509;52.122;5.250;2023-06-22T05:58:08;101860.0;;;19.82;100.0
62458;BME280;48509;52.122;5.250;2023-06-22T05:59:44;101865.0;;;19.86;100.0
62458;BME280;48509;52.122;5.250;2023-06-22T06:02:57;101865.0;;;20.02;100.0
62458;BME280;48509;52.122;5.250;2023-06-22T06:04:33;101868.0;;;20.04;100.0
62458;BME280;48509;52.122;5.250;2023-06-22T06:06:09;101865.0;;;20.12;100.0
62458;BME280;48509;52.122;5.250;2023-06-22T06:07:45;101860.0;;;20.25;100.0
62458;BME280;48509;52.122;5.250;2023-06-22T06:10:58;101857.0;;;20.3;100.0
62458;BME280;48509;52.122;5.250;2023-06-22T06:12:35;101855.0;;;20.38;100.0
62458;BME280;48509;52.122;5.250;2023-06-22T06:14:11;101856.0;;;20.54;100.0
62458;BME280;48509;52.122;5.250;2023-06-22T06:17:23;101846.0;;;20.66;100.0
62458;BME280;48509;52.122;5.250;2023-06-22T06:18:59;101843.0;;;20.8;100.0
62458;BME280;48509;52.122;5.250;2023-06-22T06:20:35;101842.0;;;20.88;100.0
62458;BME280;48509;52.122;5.250;2023-06-22T06:23:48;101842.0;;;20.83;100.0
62458;BME280;48509;52.122;5.250;2023-06-22T06:25:24;101838.0;;;20.93;100.0
62458;BME280;48509;52.122;5.250;2023-06-22T06:27:00;101833.0;;;21.06;100.0
62458;BME280;48509;52.122;5.250;2023-06-22T06:30:14;101834.0;;;21.14;100.0
62458;BME280;48509;52.122;5.250;2023-06-22T06:31:51;101836.0;;;21.24;100.0
62458;BME280;48509;52.122;5.250;2023-06-22T06:33:27;101834.0;;;21.44;99.51
62458;BME280;48509;52.122;5.250;2023-06-22T06:35:04;101833.0;;;21.41;100.0
62458;BME280;48509;52.122;5.250;2023-06-22T06:38:16;101826.0;;;21.54;98.45
62458;BME280;48509;52.122;5.250;2023-06-22T06:39:52;101826.0;;;21.61;97.39
62458;BME280;48509;52.122;5.250;2023-06-22T06:41:29;101822.0;;;21.62;98.51
62458;BME280;48509;52.122;5.250;2023-06-22T06:44:41;101826.0;;;21.74;96.84
62458;BME280;48509;52.122;5.250;2023-06-22T06:46:17;101821.0;;;21.8;98.22
62458;BME280;48509;52.122;5.250;2023-06-22T06:47:53;101818.0;;;21.96;96.29
62458;BME280;48509;52.122;5.250;2023-06-22T06:51:06;101820.0;;;22.03;95.15
62458;BME280;48509;52.122;5.250;2023-06-22T06:52:42;101818.0;;;22.11;93.43
62458;BME280;48509;52.122;5.250;2023-06-22T06:54:18;101813.0;;;22.26;93.81
62458;BME280;48509;52.122;5.250;2023-06-22T06:55:54;101817.0;;;22.27;91.84
62458;BME280;48509;52.122;5.250;2023-06-22T06:59:06;101814.0;;;22.34;90.66
62458;BME280;48509;52.122;5.250;2023-06-22T07:00:43;101813.0;;;22.29;91.56
62458;BME280;48509;52.122;5.250;2023-06-22T07:02:19;101818.0;;;22.36;90.36
62458;BME280;48509;52.122;5.250;2023-06-22T07:05:31;101810.0;;;22.5;88.78
62458;BME280;48509;52.122;5.250;2023-06-22T07:07:07;101812.0;;;22.59;87.76
62458;BME280;48509;52.122;5.250;2023-06-22T07:08:43;101811.0;;;22.66;87.5
62458;BME280;48509;52.122;5.250;2023-06-22T07:11:56;101812.0;;;22.76;88.22
62458;BME280;48509;52.122;5.250;2023-06-22T07:13:32;101811.0;;;22.83;89.19
62458;BME280;48509;52.122;5.250;2023-06-22T07:15:09;101815.0;;;23.01;87.66
62458;BME280;48509;52.122;5.250;2023-06-22T07:18:21;101806.0;;;22.99;86.68
62458;BME280;48509;52.122;5.250;2023-06-22T07:19:57;101811.0;;;23.0;88.77
62458;BME280;48509;52.122;5.250;2023-06-22T07:21:34;101811.0;;;23.06;88.3
62458;BME280;48509;52.122;5.250;2023-06-22T07:23:10;101814.0;;;23.08;86.52
62458;BME280;48509;52.122;5.250;2023-06-22T07:26:22;101813.0;;;23.15;86.27
62458;BME280;48509;52.122;5.250;2023-06-22T07:28:00;101820.0;;;23.24;85.58
62458;BME280;48509;52.122;5.250;2023-06-22T07:29:38;101817.0;;;23.23;84.71
62458;BME280;48509;52.122;5.250;2023-06-22T07:32:50;101817.0;;;23.34;84.71
62458;BME280;48509;52.122;5.250;2023-06-22T07:34:26;101816.0;;;23.38;83.43
62458;BME280;48509;52.122;5.250;2023-06-22T07:36:03;101811.0;;;23.47;82.21
62458;BME280;48509;52.122;5.250;2023-06-22T07:39:15;101810.0;;;23.29;81.53
62458;BME280;48509;52.122;5.250;2023-06-22T07:40:52;101807.0;;;23.47;82.29
62458;BME280;48509;52.122;5.250;2023-06-22T07:42:28;101809.0;;;23.34;83.61
62458;BME280;48509;52.122;5.250;2023-06-22T07:44:04;101803.0;;;23.41;81.44
62458;BME280;48509;52.122;5.250;2023-06-22T07:47:16;101797.0;;;23.59;82.64
62458;BME280;48509;52.122;5.250;2023-06-22T07:48:52;101796.0;;;23.7;83.25
62458;BME280;48509;52.122;5.250;2023-06-22T07:50:29;101796.0;;;23.8;79.33
62458;BME280;48509;52.122;5.250;2023-06-22T07:53:42;101794.0;;;23.7;80.44
62458;BME280;48509;52.122;5.250;2023-06-22T07:55:19;101793.0;;;23.77;78.83
62458;BME280;48509;52.122;5.250;2023-06-22T07:56:55;101790.0;;;23.71;80.77
62458;BME280;48509;52.122;5.250;2023-06-22T08:00:09;101791.0;;;23.86;78.0
62458;BME280;48509;52.122;5.250;2023-06-22T08:01:46;101788.0;;;23.97;76.39
62458;BME280;48509;52.122;5.250;2023-06-22T08:03:22;101784.0;;;24.01;77.02
62458;BME280;48509;52.122;5.250;2023-06-22T08:04:58;101780.0;;;24.06;75.81
62458;BME280;48509;52.122;5.250;2023-06-22T08:08:10;101780.0;;;24.15;74.53
62458;BME280;48509;52.122;5.250;2023-06-22T08:09:47;101775.0;;;24.15;73.81
62458;BME280;48509;52.122;5.250;2023-06-22T08:11:24;101772.0;;;24.27;72.94
62458;BME280;48509;52.122;5.250;2023-06-22T08:14:38;101765.0;;;24.4;73.17
62458;BME280;48509;52.122;5.250;2023-06-22T08:16:14;101760.0;;;24.48;72.12
62458;BME280;48509;52.122;5.250;2023-06-22T08:17:50;101760.0;;;24.53;71.23
62458;BME280;48509;52.122;5.250;2023-06-22T08:21:04;101753.0;;;24.61;70.45
62458;BME280;48509;52.122;5.250;2023-06-22T08:22:41;101750.0;;;24.66;72.09
62458;BME280;48509;52.122;5.250;2023-06-22T08:24:17;101749.0;;;24.56;71.52
62458;BME280;48509;52.122;5.250;2023-06-22T08:25:53;101743.0;;;24.63;74.27
62458;BME280;48509;52.122;5.250;2023-06-22T08:29:06;101747.0;;;24.71;72.97
62458;BME280;48509;52.122;5.250;2023-06-22T08:30:42;101739.0;;;24.72;71.77
62458;BME280;48509;52.122;5.250;2023-06-22T08:32:18;101737.0;;;24.91;71.34
62458;BME280;48509;52.122;5.250;2023-06-22T08:35:30;101733.0;;;24.93;73.55
62458;BME280;48509;52.122;5.250;2023-06-22T08:37:06;101732.0;;;25.03;73.16
62458;BME280;48509;52.122;5.250;2023-06-22T08:38:42;101732.0;;;24.96;69.16
62458;BME280;48509;52.122;5.250;2023-06-22T08:41:56;101735.0;;;25.12;66.95
62458;BME280;48509;52.122;5.250;2023-06-22T08:43:32;101732.0;;;25.23;67.0
62458;BME280;48509;52.122;5.250;2023-06-22T08:45:09;101728.0;;;25.23;65.42
62458;BME280;48509;52.122;5.250;2023-06-22T08:46:45;101720.0;;;25.31;66.47
62458;BME280;48509;52.122;5.250;2023-06-22T08:49:57;101719.0;;;25.28;63.55
62458;BME280;48509;52.122;5.250;2023-06-22T08:51:34;101730.0;;;25.29;61.04
62458;BME280;48509;52.122;5.250;2023-06-22T08:53:10;101725.0;;;25.41;60.68
62458;BME280;48509;52.122;5.250;2023-06-22T08:56:22;101725.0;;;25.43;61.16
62458;BME280;48509;52.122;5.250;2023-06-22T08:57:58;101724.0;;;25.38;63.04
62458;BME280;48509;52.122;5.250;2023-06-22T08:59:34;101720.0;;;25.5;64.35
62458;BME280;48509;52.122;5.250;2023-06-22T09:02:47;101720.0;;;25.6;62.89
62458;BME280;48509;52.122;5.250;2023-06-22T09:04:24;101718.0;;;25.64;62.07
62458;BME280;48509;52.122;5.250;2023-06-22T09:06:00;101713.0;;;25.83;62.82
62458;BME280;48509;52.122;5.250;2023-06-22T09:09:13;101715.0;;;25.82;64.5
62458;BME280;48509;52.122;5.250;2023-06-22T09:10:50;101713.0;;;25.88;61.37
62458;BME280;48509;52.122;5.250;2023-06-22T09:12:26;101713.0;;;25.97;60.96
62458;BME280;48509;52.122;5.250;2023-06-22T09:14:02;101718.0;;;25.77;58.54
62458;BME280;48509;52.122;5.250;2023-06-22T09:17:14;101717.0;;;25.87;60.02
62458;BME280;48509;52.122;5.250;2023-06-22T09:18:50;101714.0;;;26.08;61.11
62458;BME280;48509;52.122;5.250;2023-06-22T09:20:27;101720.0;;;26.25;60.96
62458;BME280;48509;52.122;5.250;2023-06-22T09:23:39;101719.0;;;26.22;60.79
62458;BME280;48509;52.122;5.250;2023-06-22T09:25:15;101714.0;;;26.35;59.43
62458;BME280;48509;52.122;5.250;2023-06-22T09:26:51;101718.0;;;26.33;59.07
62458;BME280;48509;52.122;5.250;2023-06-22T09:30:05;101713.0;;;26.35;59.63
62458;BME280;48509;52.122;5.250;2023-06-22T09:31:40;101714.0;;;26.32;61.97
62458;BME280;48509;52.122;5.250;2023-06-22T09:33:17;101717.0;;;26.29;63.8
62458;BME280;48509;52.122;5.250;2023-06-22T09:34:53;101720.0;;;26.23;59.82
62458;BME280;48509;52.122;5.250;2023-06-22T09:38:05;101720.0;;;26.32;62.4
62458;BME280;48509;52.122;5.250;2023-06-22T09:39:41;101723.0;;;26.39;60.68
62458;BME280;48509;52.122;5.250;2023-06-22T09:41:17;101718.0;;;26.45;60.95
62458;BME280;48509;52.122;5.250;2023-06-22T09:44:30;101715.0;;;26.45;61.72
62458;BME280;48509;52.122;5.250;2023-06-22T09:46:06;101716.0;;;26.58;62.41
62458;BME280;48509;52.122;5.250;2023-06-22T09:47:42;101715.0;;;26.55;61.92
62458;BME280;48509;52.122;5.250;2023-06-22T09:50:54;101709.0;;;26.57;57.87
62458;BME280;48509;52.122;5.250;2023-06-22T09:52:30;101707.0;;;26.6;59.92
62458;BME280;48509;52.122;5.250;2023-06-22T09:54:07;101706.0;;;26.48;59.91
62458;BME280;48509;52.122;5.250;2023-06-22T09:57:19;101707.0;;;26.56;59.58
62458;BME280;48509;52.122;5.250;2023-06-22T09:58:55;101705.0;;;26.65;59.03
62458;BME280;48509;52.122;5.250;2023-06-22T10:00:31;101702.0;;;26.54;57.82
62458;BME280;48509;52.122;5.250;2023-06-22T10:02:08;101699.0;;;26.59;59.8
62458;BME280;48509;52.122;5.250;2023-06-22T10:05:21;101699.0;;;26.55;58.28
62458;BME280;48509;52.122;5.250;2023-06-22T10:06:57;101698.0;;;26.57;59.36
62458;BME280;48509;52.122;5.250;2023-06-22T10:08:33;101703.0;;;26.54;59.88
62458;BME280;48509;52.122;5.250;2023-06-22T10:11:46;101702.0;;;26.51;60.82
62458;BME280;48509;52.122;5.250;2023-06-22T10:13:22;101701.0;;;26.47;61.42
62458;BME280;48509;52.122;5.250;2023-06-22T10:14:58;101705.0;;;26.47;60.74
62458;BME280;48509;52.122;5.250;2023-06-22T10:18:12;101703.0;;;26.38;62.39
62458;BME280;48509;52.122;5.250;2023-06-22T10:19:48;101705.0;;;26.36;63.04
62458;BME280;48509;52.122;5.250;2023-06-22T10:21:24;101703.0;;;26.4;61.41
62458;BME280;48509;52.122;5.250;2023-06-22T10:23:00;101702.0;;;26.33;62.08
62458;BME280;48509;52.122;5.250;2023-06-22T10:26:13;101705.0;;;26.31;62.38
62458;BME280;48509;52.122;5.250;2023-06-22T10:27:49;101701.0;;;26.19;63.37
62458;BME280;48509;52.122;5.250;2023-06-22T10:29:25;101706.0;;;26.24;63.33
62458;BME280;48509;52.122;5.250;2023-06-22T10:32:38;101698.0;;;26.11;64.92
62458;BME280;48509;52.122;5.250;2023-06-22T10:34:14;101705.0;;;26.19;66.92
62458;BME280;48509;52.122;5.250;2023-06-22T10:35:51;101700.0;;;26.07;66.52
62458;BME280;48509;52.122;5.250;2023-06-22T10:39:03;101705.0;;;26.05;65.44
62458;BME280;48509;52.122;5.250;2023-06-22T10:40:39;101705.0;;;26.12;63.89
62458;BME280;48509;52.122;5.250;2023-06-22T10:42:15;101707.0;;;26.05;64.37
62458;BME280;48509;52.122;5.250;2023-06-22T10:45:27;101705.0;;;26.02;65.66
62458;BME280;48509;52.122;5.250;2023-06-22T10:47:04;101708.0;;;26.01;67.05
62458;BME280;48509;52.122;5.250;2023-06-22T10:48:41;101705.0;;;25.95;65.27
62458;BME280;48509;52.122;5.250;2023-06-22T10:50:17;101705.0;;;25.95;66.41
62458;BME280;48509;52.122;5.250;2023-06-22T10:53:30;101705.0;;;25.89;68.52
62458;BME280;48509;52.122;5.250;2023-06-22T10:55:08;101703.0;;;25.95;68.94
62458;BME280;48509;52.122;5.250;2023-06-22T10:56:44;101701.0;;;25.96;69.34
62458;BME280;48509;52.122;5.250;2023-06-22T10:59:57;101705.0;;;25.94;67.77
62458;BME280;48509;52.122;5.250;2023-06-22T11:01:33;101702.0;;;26.01;68.77
62458;BME280;48509;52.122;5.250;2023-06-22T11:03:09;101705.0;;;25.85;66.85
62458;BME280;48509;52.122;5.250;2023-06-22T11:06:21;101707.0;;;25.85;68.56
62458;BME280;48509;52.122;5.250;2023-06-22T11:07:57;101714.0;;;25.8;69.55
62458;BME280;48509;52.122;5.250;2023-06-22T11:09:34;101710.0;;;25.77;69.69